Terminal Aerodrome Forecast
Issued by NWS

Home | Current Version | Previous Version | Text Only | Print | Product List | Glossary On
Versions: 1 2 3 4 5 6 7 8 9 10 11 12 13 14 15 16
727
FTUS46 KPDT 071720
TAFYKM
TAF
KYKM 071720Z 0718/0818 28007KT P6SM BKN200
     FM072100 VRB02KT P6SM SCT060 BKN200
     FM080800 28003KT 4SM BR BKN100
     FM081200 VRB03KT 2SM BR OVC015
     FM081500 VRB03KT 3SM BR SCT015 SCT100=

USA.gov is the U.S. government's official web portal to all federal, state and local government web resources and services.